^^

..:: Metar reader and decoder ::..




OSSERVAZIONI E PREVISIONI METEOROLOGICHE DAGLI AEROPORTI ITALIANI
(messaggi METAR)

 


LIPX - Villafranca(Cv/M, Italy
Distanza dalla stazione: NNE 28km
Dati ricevuti: Thu, 23-May-2024 21:20
Sereno
Sereno
 Vento da NO
Vento: NO 9 km/h
Temperatura: 15°C
P.to Rugiada: 13°C
Umidità: 88%
Barometro: 1016 hPa
Sommario: Sereno
Visibilità: superiore a 10 km
2024/05/23 19:20 LIPX 231920Z 31005KT CAVOK 15/13 Q1016
LIPO - Brescia/Montichiari, Italy
Distanza dalla stazione: NO 38km
Dati ricevuti: Thu, 23-May-2024 21:20
Sereno
Sereno
 Vento da Variabile
Vento: Variabile 4 km/h
Temperatura: 15°C
P.to Rugiada: 13°C
Umidità: 88%
Barometro: 1016 hPa
Nuvole: Sereno
Visibilità: 10 km
2024/05/23 19:20 LIPO 231920Z AUTO VRB02KT 9999 NCD 15/13 Q1016
 
LIPL - Ghedi (it-Afb), Italy
Distanza dalla stazione: NO 42km
Dati ricevuti: Thu, 23-May-2024 20:55
Sereno
Sereno
 Vento da OSO
Vento: OSO 4 km/h
Temperatura: 16°C
P.to Rugiada: 14°C
Umidità: 88%
Barometro: 1015 hPa
Sommario: Sereno
Visibilità: superiore a 10 km
2024/05/23 18:55 LIPL 231855Z 24002KT CAVOK 16/14 Q1015
LIMP - Parma, Italy
Distanza dalla stazione: SO 49km
Dati ricevuti: Thu, 23-May-2024 20:50
Few Clouds
Few Clouds
 Vento da OSO
Vento: OSO 7 km/h
Temperatura: 17°C
P.to Rugiada: 13°C
Umidità: 77%
Barometro: 1016 hPa
Nuvole: Few Clouds
Visibilità: 10 km
Dettaglio nuvole: Few Clouds 610 m
2024/05/23 18:50 LIMP 231850Z 24004KT 9999 FEW020 17/13 Q1016
 
LIMS - Piacenza (it-Afb, Italy
Distanza dalla stazione: OSO 81km
Dati ricevuti: Thu, 23-May-2024 19:55
DATI Obsoleti
Few Clouds
Few Clouds
 Vento da calmo
Vento: Calma
Temperatura: 18°C
P.to Rugiada: 18°C
Umidità: 100%
Barometro: 1015 hPa
Nuvole: Few Clouds
Visibilità: 10 km
Dettaglio nuvole: Few Clouds 1219 m
2024/05/23 17:55 LIMS 231755Z 00000KT 9999 FEW040 18/18 Q1015
LIPF - Ferrara (aut), Italy
Distanza dalla stazione: ESE 84km
Dati ricevuti: Thu, 23-May-2024 19:55
DATI Obsoleti
Sereno
Sereno
 Vento da calmo
Vento: Calma
Temperatura: 19°C
P.to Rugiada: 15°C
Umidità: 78%
Barometro: 1016 hPa
Sommario: Sereno
Visibilità: superiore a 10 km
2024/05/23 17:55 LIPF 231755Z 00000KT CAVOK 19/15 Q1016
 
LIPE - Bologna/Borgo (a, Italy
Distanza dalla stazione: SE 88km
Dati ricevuti: Thu, 23-May-2024 21:20
Sereno
Sereno
 Vento da NE
Vento: NE 6 km/h
Temperatura: 16°C
P.to Rugiada: 13°C
Umidità: 83%
Barometro: 1016 hPa
Sommario: Sereno
Visibilità: superiore a 10 km
2024/05/23 19:20 LIPE 231920Z 04003KT CAVOK 16/13 Q1016
LIPU - Padova (civ/It-A, Italy
Distanza dalla stazione: ENE 93km
Dati ricevuti: Thu, 23-May-2024 15:50
DATI Obsoleti
Parz. nuvoloso
Parz. nuvoloso
 Vento da SO
Vento: SO 7 km/h
Temperatura: 23°C
P.to Rugiada: 11°C
Umidità: 47%
Barometro: 1014 hPa
Nuvole: Parz. nuvoloso
Visibilità: 10 km
Dettaglio nuvole: Parz. nuvoloso 1219 m
2024/05/23 13:50 LIPU 231350Z 23004KT 190V270 9999 SCT040 23/11 Q1014
 
LIME - Bergamo/Orio Ser, Italy
Distanza dalla stazione: NO 95km
Dati ricevuti: Thu, 23-May-2024 21:20
Molto nuvoloso
Molto nuvoloso
 Vento da Variabile
Vento: Variabile 4 km/h
Temperatura: 15°C
P.to Rugiada: 12°C
Umidità: 82%
Barometro: 1017 hPa
Nuvole: Molto nuvoloso
Visibilità: 10 km
Dettaglio nuvole: Molto nuvoloso 2591 m
2024/05/23 19:20 LIME 231920Z AUTO VRB02KT 9999 BKN085/// 15/12 Q1017
LIMT - Cisa Pass, Italy
Distanza dalla stazione: SO 103km
Dati ricevuti: Mon, 23-Sep-2019 13:55
DATI Obsoleti
Nebbia
Nebbia
 Vento da calmo
Vento: Calma
Temperatura: 10°C
P.to Rugiada: 10°C
Umidità: 100%
Barometro: 1014 hPa
Sommario: Nebbia
Visibilità: 0 km
2019/09/23 11:55 LIMT 231155Z 00000KT 0000 FG VV/// 10/10 Q1014 RMK MON INVIS VAL INVIS VIS MIN 0000
 
LIVC - Cimone Mountain, Italy
Distanza dalla stazione: S 108km
Dati ricevuti: Thu, 23-May-2024 21:23

 Vento da NE
Vento: NE 13 km/h, Raffica: 46 km/h
Temperatura: 4°C
Temperatura del Vento: 1°C
P.to Rugiada: 2°C
Umidità: 87%
Barometro: 1020 hPa
2024/05/23 19:23 LIVC 231923Z AUTO 05007G25KT //// 04/02 Q1020
LIVP - Paganella Mounta, Italy
Distanza dalla stazione: NNE 112km
Dati ricevuti: Thu, 23-May-2024 20:55
Molto nuvoloso
Molto nuvoloso
 Vento da N
Vento: N 7 km/h
Temperatura: 3°C
Temperatura del Vento: 1°C
P.to Rugiada: 0°C
Umidità: 81%
Barometro: 1018 hPa
Nuvole: Molto nuvoloso
Visibilità: 10 km
Dettaglio nuvole: Molto nuvoloso 1006 m
2024/05/23 18:55 LIVP 231855Z 01004KT 9999 BKN033 03/M00 Q1018
 
LIML - Milano/Linate, Italy
Distanza dalla stazione: ONO 115km
Dati ricevuti: Thu, 23-May-2024 21:20
Parz. nuvoloso
Parz. nuvoloso
 Vento da E
Vento: E 6 km/h
Temperatura: 17°C
P.to Rugiada: 14°C
Umidità: 83%
Barometro: 1016 hPa
Nuvole: Parz. nuvoloso
Visibilità: 10 km
Dettaglio nuvole: Few Clouds 457 m
Parz. nuvoloso 1067 m
2024/05/23 19:20 LIML 231920Z 10003KT 050V120 9999 FEW015 SCT035 17/14 Q1016 NOSIG
LIPS - Istrana (it-Afb), Italy
Distanza dalla stazione: ENE 123km
Dati ricevuti: Thu, 23-May-2024 20:55
Parz. nuvoloso
Parz. nuvoloso
 Vento da E
Vento: E 6 km/h
Temperatura: 16°C
P.to Rugiada: 14°C
Umidità: 88%
Barometro: 1016 hPa
Nuvole: Parz. nuvoloso
Visibilità: 10 km
Dettaglio nuvole: Few Clouds 610 m
Parz. nuvoloso 2438 m
2024/05/23 18:55 LIPS 231855Z 10003KT 9999 FEW020 SCT080 16/14 Q1016
 
LIPH - Treviso(Civ/It-A, Italy
Distanza dalla stazione: ENE 127km
Dati ricevuti: Thu, 23-May-2024 21:20
Sereno
Sereno
 Vento da E
Vento: E 6 km/h
Temperatura: 16°C
P.to Rugiada: 15°C
Umidità: 94%
Barometro: 1016 hPa
Sommario: Sereno
Visibilità: superiore a 10 km
2024/05/23 19:20 LIPH 231920Z 10003KT 050V160 CAVOK 16/15 Q1016
LIPZ - Venezia/Tessera, Italy
Distanza dalla stazione: ENE 133km
Dati ricevuti: Thu, 23-May-2024 21:20
Few Clouds
Few Clouds
 Vento da SSO
Vento: SSO 4 km/h
Temperatura: 17°C
P.to Rugiada: 11°C
Umidità: 68%
Barometro: 1016 hPa
Nuvole: Few Clouds
Visibilità: 10 km
Dettaglio nuvole: Few Clouds 1372 m
2024/05/23 19:20 LIPZ 231920Z 20002KT 9999 FEW045 17/11 Q1016 NOSIG
 
LIQW - Sarzana/Luni, Italy
Distanza dalla stazione: SSO 135km
Dati ricevuti: Thu, 23-May-2024 15:55
DATI Obsoleti
Parz. nuvoloso
Parz. nuvoloso
 Vento da SSO
Vento: SSO 9 km/h
Temperatura: 20°C
P.to Rugiada: 15°C
Umidità: 73%
Barometro: 1017 hPa
Nuvole: Parz. nuvoloso
Visibilità: 10 km
Dettaglio nuvole: Parz. nuvoloso 762 m
2024/05/23 13:55 LIQW 231355Z 20005KT 9999 SCT025 20/15 Q1017
LIVR - Rolle Pass, Italy
Distanza dalla stazione: NE 150km
Dati ricevuti: Thu, 23-May-2024 20:55
Few Clouds
Few Clouds
 Vento da ENE
Vento: ENE 4 km/h
Temperatura: 4°C
P.to Rugiada: 2°C
Umidità: 87%
Barometro: 1019 hPa
Nuvole: Few Clouds
Visibilità: 10 km
Dettaglio nuvole: Few Clouds 914 m
2024/05/23 18:55 LIVR 231855Z 07002KT 9999 FEW030 04/02 Q1019
 
LIPC - Cervia (it-Afb), Italy
Dati ricevuti: Thu, 23-May-2024 20:55
Few Clouds
Few Clouds
 Vento da ONO
Vento: ONO 9 km/h
Temperatura: 17°C
P.to Rugiada: 13°C
Umidità: 77%
Barometro: 1017 hPa
Nuvole: Few Clouds
Visibilità: 10 km
Dettaglio nuvole: Few Clouds 914 m
2024/05/23 18:55 LIPC 231855Z 30005KT 9999 FEW030 17/13 Q1017
LIPR - Rimini (civ/It-A, Italy
Dati ricevuti: Thu, 23-May-2024 21:20
Nearby thunderstorm, Parz. nuvoloso
Nearby thunderstorm, Parz. nuvoloso
 Vento da O
Vento: O 17 km/h
Temperatura: 19°C
P.to Rugiada: 13°C
Umidità: 68%
Barometro: 1016 hPa
Sommario: Nearby Thunderstorm
Nuvole: Parz. nuvoloso
Visibilità: 10 km
Dettaglio nuvole: Few Clouds 1524 m
Parz. nuvoloso 1829 m
2024/05/23 19:20 LIPR 231920Z 26009KT 9999 VCTS FEW050CB SCT060 19/13 Q1016






METEO PILLOLE
Temperatura più bassa in montagna in Italia
Busa Fradusta (2.606m) Pale di San Martino - Trento
-48.3°C il 27 Dicembre 2010.

Do NOT follow this link or you will be banned from the site!